sensor_id;sensor_type;location;lat;lon;timestamp;P1;durP1;ratioP1;P2;durP2;ratioP2
47856;SDS011;33618;49.972;8.242;2023-02-20T00:01:35;8.48;;;3.65;;
47856;SDS011;33618;49.972;8.242;2023-02-20T00:04:02;4.22;;;3.75;;
47856;SDS011;33618;49.972;8.242;2023-02-20T00:06:29;5.88;;;3.67;;
47856;SDS011;33618;49.972;8.242;2023-02-20T00:08:56;5.22;;;3.55;;
47856;SDS011;33618;49.972;8.242;2023-02-20T00:11:23;5.55;;;4.00;;
47856;SDS011;33618;49.972;8.242;2023-02-20T00:13:50;6.75;;;4.30;;
47856;SDS011;33618;49.972;8.242;2023-02-20T00:16:17;6.57;;;4.00;;
47856;SDS011;33618;49.972;8.242;2023-02-20T00:18:44;4.10;;;3.70;;
47856;SDS011;33618;49.972;8.242;2023-02-20T00:21:12;5.25;;;4.00;;
47856;SDS011;33618;49.972;8.242;2023-02-20T00:23:39;6.20;;;4.07;;
47856;SDS011;33618;49.972;8.242;2023-02-20T00:26:10;5.60;;;3.90;;
47856;SDS011;33618;49.972;8.242;2023-02-20T00:28:38;7.25;;;3.95;;
47856;SDS011;33618;49.972;8.242;2023-02-20T00:31:06;5.57;;;3.78;;
47856;SDS011;33618;49.972;8.242;2023-02-20T00:33:34;4.95;;;3.47;;
47856;SDS011;33618;49.972;8.242;2023-02-20T00:36:02;5.15;;;3.90;;
47856;SDS011;33618;49.972;8.242;2023-02-20T00:38:30;5.25;;;3.85;;
47856;SDS011;33618;49.972;8.242;2023-02-20T00:40:57;9.40;;;3.90;;
47856;SDS011;33618;49.972;8.242;2023-02-20T00:43:24;6.75;;;4.05;;
47856;SDS011;33618;49.972;8.242;2023-02-20T00:45:50;5.93;;;3.67;;
47856;SDS011;33618;49.972;8.242;2023-02-20T00:48:17;5.68;;;3.85;;
47856;SDS011;33618;49.972;8.242;2023-02-20T00:50:45;5.20;;;3.90;;
47856;SDS011;33618;49.972;8.242;2023-02-20T00:53:11;7.90;;;4.18;;
47856;SDS011;33618;49.972;8.242;2023-02-20T00:55:38;5.55;;;4.03;;
47856;SDS011;33618;49.972;8.242;2023-02-20T00:58:05;10.10;;;4.60;;
47856;SDS011;33618;49.972;8.242;2023-02-20T01:00:32;8.65;;;4.63;;
47856;SDS011;33618;49.972;8.242;2023-02-20T01:02:59;6.28;;;4.18;;
47856;SDS011;33618;49.972;8.242;2023-02-20T01:05:26;6.47;;;4.50;;
47856;SDS011;33618;49.972;8.242;2023-02-20T01:07:54;7.70;;;4.60;;
47856;SDS011;33618;49.972;8.242;2023-02-20T01:10:21;6.93;;;4.93;;
47856;SDS011;33618;49.972;8.242;2023-02-20T01:12:48;5.65;;;4.47;;
47856;SDS011;33618;49.972;8.242;2023-02-20T01:22:55;9.63;;;5.38;;
47856;SDS011;33618;49.972;8.242;2023-02-20T01:25:40;6.70;;;4.85;;
47856;SDS011;33618;49.972;8.242;2023-02-20T01:28:07;9.70;;;4.97;;
47856;SDS011;33618;49.972;8.242;2023-02-20T01:30:34;6.85;;;4.93;;
47856;SDS011;33618;49.972;8.242;2023-02-20T01:33:01;10.75;;;5.15;;
47856;SDS011;33618;49.972;8.242;2023-02-20T01:35:28;8.90;;;5.00;;
47856;SDS011;33618;49.972;8.242;2023-02-20T01:37:57;6.47;;;4.60;;
47856;SDS011;33618;49.972;8.242;2023-02-20T01:40:26;8.98;;;5.00;;
47856;SDS011;33618;49.972;8.242;2023-02-20T01:42:53;6.72;;;4.70;;
47856;SDS011;33618;49.972;8.242;2023-02-20T01:47:48;8.05;;;4.93;;
47856;SDS011;33618;49.972;8.242;2023-02-20T01:50:19;7.75;;;5.20;;
47856;SDS011;33618;49.972;8.242;2023-02-20T01:53:00;8.45;;;4.70;;
47856;SDS011;33618;49.972;8.242;2023-02-20T01:55:32;7.47;;;4.70;;
47856;SDS011;33618;49.972;8.242;2023-02-20T01:58:11;6.85;;;4.93;;
47856;SDS011;33618;49.972;8.242;2023-02-20T02:00:42;8.63;;;4.82;;
47856;SDS011;33618;49.972;8.242;2023-02-20T02:03:31;11.90;;;5.05;;
47856;SDS011;33618;49.972;8.242;2023-02-20T02:06:05;9.32;;;4.78;;
47856;SDS011;33618;49.972;8.242;2023-02-20T02:08:35;8.48;;;4.68;;
47856;SDS011;33618;49.972;8.242;2023-02-20T02:11:04;8.27;;;4.63;;
47856;SDS011;33618;49.972;8.242;2023-02-20T02:13:35;6.55;;;4.65;;
47856;SDS011;33618;49.972;8.242;2023-02-20T02:16:10;6.53;;;4.07;;
47856;SDS011;33618;49.972;8.242;2023-02-20T02:19:38;8.05;;;4.93;;
47856;SDS011;33618;49.972;8.242;2023-02-20T02:38:02;9.15;;;4.85;;
47856;SDS011;33618;49.972;8.242;2023-02-20T02:50:02;8.50;;;5.20;;
47856;SDS011;33618;49.972;8.242;2023-02-20T02:52:40;7.22;;;4.60;;
47856;SDS011;33618;49.972;8.242;2023-02-20T02:55:16;7.75;;;4.82;;
47856;SDS011;33618;49.972;8.242;2023-02-20T02:57:45;5.68;;;4.70;;
47856;SDS011;33618;49.972;8.242;2023-02-20T03:00:18;8.32;;;4.43;;
47856;SDS011;33618;49.972;8.242;2023-02-20T03:02:54;7.00;;;4.70;;
47856;SDS011;33618;49.972;8.242;2023-02-20T03:05:37;7.50;;;4.95;;
47856;SDS011;33618;49.972;8.242;2023-02-20T03:14:45;6.47;;;4.47;;
47856;SDS011;33618;49.972;8.242;2023-02-20T03:17:38;10.88;;;5.10;;
47856;SDS011;33618;49.972;8.242;2023-02-20T03:20:14;7.72;;;4.95;;
47856;SDS011;33618;49.972;8.242;2023-02-20T03:22:49;9.93;;;5.70;;
47856;SDS011;33618;49.972;8.242;2023-02-20T03:33:09;8.55;;;4.82;;
47856;SDS011;33618;49.972;8.242;2023-02-20T03:35:59;7.90;;;4.50;;
47856;SDS011;33618;49.972;8.242;2023-02-20T03:38:49;6.43;;;4.65;;
47856;SDS011;33618;49.972;8.242;2023-02-20T03:41:42;9.82;;;4.72;;
47856;SDS011;33618;49.972;8.242;2023-02-20T03:44:31;6.80;;;4.97;;
47856;SDS011;33618;49.972;8.242;2023-02-20T03:47:00;6.75;;;4.32;;
47856;SDS011;33618;49.972;8.242;2023-02-20T03:49:33;5.80;;;4.38;;
47856;SDS011;33618;49.972;8.242;2023-02-20T03:52:03;9.20;;;4.80;;
47856;SDS011;33618;49.972;8.242;2023-02-20T03:54:31;7.35;;;4.45;;
47856;SDS011;33618;49.972;8.242;2023-02-20T03:57:10;8.93;;;4.53;;
47856;SDS011;33618;49.972;8.242;2023-02-20T03:59:49;8.05;;;4.20;;
47856;SDS011;33618;49.972;8.242;2023-02-20T04:02:25;7.28;;;4.57;;
47856;SDS011;33618;49.972;8.242;2023-02-20T04:04:58;10.75;;;4.38;;
47856;SDS011;33618;49.972;8.242;2023-02-20T04:07:35;7.15;;;4.25;;
47856;SDS011;33618;49.972;8.242;2023-02-20T04:10:09;7.50;;;4.53;;
47856;SDS011;33618;49.972;8.242;2023-02-20T04:12:41;8.55;;;4.10;;
47856;SDS011;33618;49.972;8.242;2023-02-20T04:15:10;8.38;;;4.80;;
47856;SDS011;33618;49.972;8.242;2023-02-20T04:17:40;6.85;;;4.40;;
47856;SDS011;33618;49.972;8.242;2023-02-20T04:20:12;9.60;;;4.63;;
47856;SDS011;33618;49.972;8.242;2023-02-20T04:22:40;9.00;;;4.75;;
47856;SDS011;33618;49.972;8.242;2023-02-20T04:25:13;6.50;;;4.10;;
47856;SDS011;33618;49.972;8.242;2023-02-20T04:27:51;8.35;;;4.65;;
47856;SDS011;33618;49.972;8.242;2023-02-20T04:30:18;4.90;;;3.80;;
47856;SDS011;33618;49.972;8.242;2023-02-20T04:32:45;7.55;;;4.00;;
47856;SDS011;33618;49.972;8.242;2023-02-20T04:35:16;8.45;;;4.10;;
47856;SDS011;33618;49.972;8.242;2023-02-20T04:37:45;6.75;;;4.13;;
47856;SDS011;33618;49.972;8.242;2023-02-20T04:40:13;8.75;;;4.32;;
47856;SDS011;33618;49.972;8.242;2023-02-20T04:42:42;8.82;;;4.35;;
47856;SDS011;33618;49.972;8.242;2023-02-20T04:45:08;5.47;;;4.20;;
47856;SDS011;33618;49.972;8.242;2023-02-20T04:47:35;5.22;;;3.95;;
47856;SDS011;33618;49.972;8.242;2023-02-20T04:50:02;8.57;;;4.07;;
47856;SDS011;33618;49.972;8.242;2023-02-20T04:52:30;7.57;;;3.95;;
47856;SDS011;33618;49.972;8.242;2023-02-20T04:54:57;8.55;;;4.80;;
47856;SDS011;33618;49.972;8.242;2023-02-20T04:57:27;9.05;;;4.40;;
47856;SDS011;33618;49.972;8.242;2023-02-20T04:59:54;9.93;;;4.28;;
47856;SDS011;33618;49.972;8.242;2023-02-20T05:02:21;12.82;;;4.40;;
47856;SDS011;33618;49.972;8.242;2023-02-20T05:04:49;9.07;;;4.65;;
47856;SDS011;33618;49.972;8.242;2023-02-20T05:07:16;8.98;;;4.72;;
47856;SDS011;33618;49.972;8.242;2023-02-20T05:09:44;9.82;;;5.30;;
47856;SDS011;33618;49.972;8.242;2023-02-20T05:12:15;8.13;;;4.60;;
47856;SDS011;33618;49.972;8.242;2023-02-20T05:14:42;10.63;;;4.90;;
47856;SDS011;33618;49.972;8.242;2023-02-20T05:17:09;7.38;;;4.53;;
47856;SDS011;33618;49.972;8.242;2023-02-20T05:19:36;7.72;;;4.60;;
47856;SDS011;33618;49.972;8.242;2023-02-20T05:22:06;8.07;;;4.60;;
47856;SDS011;33618;49.972;8.242;2023-02-20T05:24:49;11.27;;;4.30;;
47856;SDS011;33618;49.972;8.242;2023-02-20T05:27:18;11.98;;;5.05;;
47856;SDS011;33618;49.972;8.242;2023-02-20T05:29:47;8.20;;;4.65;;
47856;SDS011;33618;49.972;8.242;2023-02-20T05:32:19;9.52;;;4.72;;
47856;SDS011;33618;49.972;8.242;2023-02-20T05:34:47;7.82;;;4.82;;
47856;SDS011;33618;49.972;8.242;2023-02-20T05:37:15;8.73;;;4.82;;
47856;SDS011;33618;49.972;8.242;2023-02-20T05:39:48;9.50;;;5.18;;
47856;SDS011;33618;49.972;8.242;2023-02-20T05:42:15;10.13;;;5.30;;
47856;SDS011;33618;49.972;8.242;2023-02-20T05:44:43;12.25;;;5.35;;
47856;SDS011;33618;49.972;8.242;2023-02-20T05:47:10;10.70;;;5.00;;
47856;SDS011;33618;49.972;8.242;2023-02-20T05:49:38;7.97;;;5.13;;
47856;SDS011;33618;49.972;8.242;2023-02-20T05:52:05;8.18;;;5.07;;
47856;SDS011;33618;49.972;8.242;2023-02-20T05:54:41;10.00;;;4.63;;
47856;SDS011;33618;49.972;8.242;2023-02-20T05:57:14;10.50;;;4.55;;
47856;SDS011;33618;49.972;8.242;2023-02-20T05:59:41;9.65;;;5.18;;
47856;SDS011;33618;49.972;8.242;2023-02-20T06:02:08;7.85;;;4.70;;
47856;SDS011;33618;49.972;8.242;2023-02-20T06:04:35;11.75;;;5.18;;
47856;SDS011;33618;49.972;8.242;2023-02-20T06:07:02;9.75;;;4.57;;
47856;SDS011;33618;49.972;8.242;2023-02-20T06:09:30;13.18;;;5.03;;
47856;SDS011;33618;49.972;8.242;2023-02-20T06:12:01;8.43;;;4.47;;
47856;SDS011;33618;49.972;8.242;2023-02-20T06:14:28;8.32;;;4.60;;
47856;SDS011;33618;49.972;8.242;2023-02-20T06:16:56;8.07;;;4.75;;
47856;SDS011;33618;49.972;8.242;2023-02-20T06:19:23;7.15;;;4.72;;
47856;SDS011;33618;49.972;8.242;2023-02-20T06:21:54;8.20;;;5.05;;
47856;SDS011;33618;49.972;8.242;2023-02-20T06:24:24;10.25;;;4.78;;
47856;SDS011;33618;49.972;8.242;2023-02-20T06:26:51;7.57;;;4.63;;
47856;SDS011;33618;49.972;8.242;2023-02-20T06:29:18;7.32;;;4.75;;
47856;SDS011;33618;49.972;8.242;2023-02-20T06:31:50;6.53;;;4.50;;
47856;SDS011;33618;49.972;8.242;2023-02-20T06:34:17;10.38;;;5.05;;
47856;SDS011;33618;49.972;8.242;2023-02-20T06:36:44;7.57;;;4.90;;
47856;SDS011;33618;49.972;8.242;2023-02-20T06:39:12;10.35;;;5.00;;
47856;SDS011;33618;49.972;8.242;2023-02-20T06:41:44;9.40;;;5.57;;
47856;SDS011;33618;49.972;8.242;2023-02-20T06:44:11;12.15;;;4.70;;
47856;SDS011;33618;49.972;8.242;2023-02-20T06:46:37;8.50;;;4.80;;
47856;SDS011;33618;49.972;8.242;2023-02-20T06:49:04;8.40;;;5.22;;
47856;SDS011;33618;49.972;8.242;2023-02-20T06:51:32;13.23;;;5.60;;
47856;SDS011;33618;49.972;8.242;2023-02-20T06:54:03;7.63;;;4.97;;
47856;SDS011;33618;49.972;8.242;2023-02-20T06:56:31;8.75;;;5.05;;
47856;SDS011;33618;49.972;8.242;2023-02-20T06:58:59;8.38;;;4.45;;
47856;SDS011;33618;49.972;8.242;2023-02-20T07:01:29;7.22;;;4.82;;
47856;SDS011;33618;49.972;8.242;2023-02-20T07:04:02;9.10;;;4.40;;
47856;SDS011;33618;49.972;8.242;2023-02-20T07:06:29;7.75;;;4.60;;
47856;SDS011;33618;49.972;8.242;2023-02-20T07:08:56;7.45;;;4.55;;
47856;SDS011;33618;49.972;8.242;2023-02-20T07:11:23;8.23;;;4.70;;
47856;SDS011;33618;49.972;8.242;2023-02-20T07:13:50;10.13;;;4.70;;
47856;SDS011;33618;49.972;8.242;2023-02-20T07:16:18;8.82;;;4.60;;
47856;SDS011;33618;49.972;8.242;2023-02-20T07:18:52;8.35;;;4.18;;
47856;SDS011;33618;49.972;8.242;2023-02-20T07:21:19;8.68;;;4.80;;
47856;SDS011;33618;49.972;8.242;2023-02-20T07:23:46;6.75;;;4.25;;
47856;SDS011;33618;49.972;8.242;2023-02-20T07:26:21;13.68;;;4.88;;
47856;SDS011;33618;49.972;8.242;2023-02-20T07:28:50;7.57;;;4.72;;
47856;SDS011;33618;49.972;8.242;2023-02-20T07:31:20;8.90;;;4.18;;
47856;SDS011;33618;49.972;8.242;2023-02-20T07:33:48;8.13;;;4.90;;
47856;SDS011;33618;49.972;8.242;2023-02-20T07:36:15;11.25;;;4.95;;
47856;SDS011;33618;49.972;8.242;2023-02-20T07:38:43;8.57;;;4.60;;
47856;SDS011;33618;49.972;8.242;2023-02-20T07:41:22;7.80;;;4.75;;
47856;SDS011;33618;49.972;8.242;2023-02-20T07:43:55;12.02;;;4.65;;
47856;SDS011;33618;49.972;8.242;2023-02-20T07:46:22;7.50;;;4.85;;
47856;SDS011;33618;49.972;8.242;2023-02-20T07:48:49;7.18;;;4.40;;
47856;SDS011;33618;49.972;8.242;2023-02-20T07:51:21;8.15;;;4.72;;
47856;SDS011;33618;49.972;8.242;2023-02-20T07:53:48;10.13;;;5.15;;
47856;SDS011;33618;49.972;8.242;2023-02-20T07:56:17;11.73;;;5.00;;
47856;SDS011;33618;49.972;8.242;2023-02-20T07:58:48;7.20;;;4.68;;
47856;SDS011;33618;49.972;8.242;2023-02-20T08:01:16;9.90;;;5.45;;
47856;SDS011;33618;49.972;8.242;2023-02-20T08:03:43;9.82;;;5.13;;
47856;SDS011;33618;49.972;8.242;2023-02-20T08:06:10;12.82;;;5.20;;
47856;SDS011;33618;49.972;8.242;2023-02-20T08:08:41;9.02;;;5.40;;
47856;SDS011;33618;49.972;8.242;2023-02-20T08:11:16;14.30;;;5.57;;
47856;SDS011;33618;49.972;8.242;2023-02-20T08:13:44;10.68;;;5.68;;
47856;SDS011;33618;49.972;8.242;2023-02-20T08:16:16;11.77;;;5.82;;
47856;SDS011;33618;49.972;8.242;2023-02-20T08:18:43;12.68;;;6.45;;
47856;SDS011;33618;49.972;8.242;2023-02-20T08:21:10;10.57;;;7.10;;
47856;SDS011;33618;49.972;8.242;2023-02-20T08:23:37;13.90;;;7.15;;
47856;SDS011;33618;49.972;8.242;2023-02-20T08:26:09;21.33;;;7.65;;
47856;SDS011;33618;49.972;8.242;2023-02-20T08:28:37;14.57;;;7.07;;
47856;SDS011;33618;49.972;8.242;2023-02-20T08:31:04;13.70;;;7.43;;
47856;SDS011;33618;49.972;8.242;2023-02-20T08:33:31;16.65;;;8.32;;
47856;SDS011;33618;49.972;8.242;2023-02-20T08:35:59;15.48;;;8.15;;
47856;SDS011;33618;49.972;8.242;2023-02-20T08:38:36;17.30;;;8.35;;
47856;SDS011;33618;49.972;8.242;2023-02-20T08:41:05;16.15;;;7.60;;
47856;SDS011;33618;49.972;8.242;2023-02-20T08:43:38;13.65;;;7.47;;
47856;SDS011;33618;49.972;8.242;2023-02-20T08:46:08;17.13;;;8.65;;
47856;SDS011;33618;49.972;8.242;2023-02-20T08:48:36;16.20;;;9.20;;
47856;SDS011;33618;49.972;8.242;2023-02-20T08:51:04;15.57;;;8.48;;
47856;SDS011;33618;49.972;8.242;2023-02-20T08:53:32;16.27;;;8.23;;
47856;SDS011;33618;49.972;8.242;2023-02-20T08:56:04;18.02;;;7.95;;
47856;SDS011;33618;49.972;8.242;2023-02-20T08:58:31;16.05;;;8.60;;
47856;SDS011;33618;49.972;8.242;2023-02-20T09:00:58;15.95;;;8.60;;
47856;SDS011;33618;49.972;8.242;2023-02-20T09:03:25;16.90;;;8.45;;
47856;SDS011;33618;49.972;8.242;2023-02-20T09:05:52;14.23;;;8.40;;
47856;SDS011;33618;49.972;8.242;2023-02-20T09:08:24;14.50;;;7.75;;
47856;SDS011;33618;49.972;8.242;2023-02-20T09:10:51;17.88;;;8.48;;
47856;SDS011;33618;49.972;8.242;2023-02-20T09:13:18;15.27;;;7.95;;
47856;SDS011;33618;49.972;8.242;2023-02-20T09:15:45;20.35;;;8.88;;
47856;SDS011;33618;49.972;8.242;2023-02-20T09:18:13;14.32;;;8.00;;
47856;SDS011;33618;49.972;8.242;2023-02-20T09:20:43;13.52;;;7.75;;
47856;SDS011;33618;49.972;8.242;2023-02-20T09:23:10;13.75;;;7.63;;
47856;SDS011;33618;49.972;8.242;2023-02-20T09:25:37;15.73;;;8.35;;
47856;SDS011;33618;49.972;8.242;2023-02-20T09:28:04;16.42;;;8.70;;
47856;SDS011;33618;49.972;8.242;2023-02-20T09:30:31;19.35;;;8.55;;
47856;SDS011;33618;49.972;8.242;2023-02-20T09:33:00;15.30;;;8.07;;
47856;SDS011;33618;49.972;8.242;2023-02-20T09:35:30;16.73;;;8.65;;
47856;SDS011;33618;49.972;8.242;2023-02-20T09:37:57;15.75;;;8.23;;
47856;SDS011;33618;49.972;8.242;2023-02-20T09:40:25;18.92;;;8.65;;
47856;SDS011;33618;49.972;8.242;2023-02-20T09:45:50;14.93;;;8.15;;
47856;SDS011;33618;49.972;8.242;2023-02-20T09:51:01;12.52;;;7.68;;
47856;SDS011;33618;49.972;8.242;2023-02-20T09:53:37;11.48;;;7.97;;
47856;SDS011;33618;49.972;8.242;2023-02-20T09:56:12;13.25;;;7.45;;
47856;SDS011;33618;49.972;8.242;2023-02-20T09:58:46;12.63;;;7.53;;
47856;SDS011;33618;49.972;8.242;2023-02-20T10:01:16;13.18;;;6.63;;
47856;SDS011;33618;49.972;8.242;2023-02-20T10:03:55;12.93;;;7.35;;
47856;SDS011;33618;49.972;8.242;2023-02-20T10:06:27;13.45;;;7.13;;
47856;SDS011;33618;49.972;8.242;2023-02-20T10:08:56;13.07;;;6.90;;
47856;SDS011;33618;49.972;8.242;2023-02-20T10:19:49;14.65;;;6.38;;
47856;SDS011;33618;49.972;8.242;2023-02-20T10:22:23;11.50;;;6.13;;
47856;SDS011;33618;49.972;8.242;2023-02-20T10:30:27;10.75;;;5.88;;
47856;SDS011;33618;49.972;8.242;2023-02-20T10:35:56;10.75;;;5.53;;
47856;SDS011;33618;49.972;8.242;2023-02-20T10:38:32;7.88;;;5.18;;
47856;SDS011;33618;49.972;8.242;2023-02-20T10:46:16;11.05;;;5.57;;
47856;SDS011;33618;49.972;8.242;2023-02-20T10:48:55;9.80;;;5.63;;
47856;SDS011;33618;49.972;8.242;2023-02-20T10:51:36;10.13;;;5.03;;
47856;SDS011;33618;49.972;8.242;2023-02-20T10:54:07;8.23;;;5.43;;
47856;SDS011;33618;49.972;8.242;2023-02-20T10:56:40;9.25;;;5.82;;
47856;SDS011;33618;49.972;8.242;2023-02-20T11:02:18;9.55;;;5.00;;
47856;SDS011;33618;49.972;8.242;2023-02-20T11:04:56;10.68;;;5.80;;
47856;SDS011;33618;49.972;8.242;2023-02-20T11:07:30;8.05;;;4.93;;
47856;SDS011;33618;49.972;8.242;2023-02-20T11:09:57;10.95;;;4.88;;
47856;SDS011;33618;49.972;8.242;2023-02-20T11:12:40;10.77;;;5.30;;
47856;SDS011;33618;49.972;8.242;2023-02-20T11:15:20;8.65;;;5.20;;
47856;SDS011;33618;49.972;8.242;2023-02-20T11:17:55;8.07;;;5.25;;
47856;SDS011;33618;49.972;8.242;2023-02-20T11:23:04;7.32;;;4.85;;
47856;SDS011;33618;49.972;8.242;2023-02-20T11:25:32;9.38;;;4.60;;
47856;SDS011;33618;49.972;8.242;2023-02-20T11:30:43;8.30;;;4.78;;
47856;SDS011;33618;49.972;8.242;2023-02-20T11:33:16;8.15;;;4.63;;
47856;SDS011;33618;49.972;8.242;2023-02-20T11:35:49;9.30;;;4.40;;
47856;SDS011;33618;49.972;8.242;2023-02-20T11:38:27;7.43;;;4.30;;
47856;SDS011;33618;49.972;8.242;2023-02-20T11:46:22;8.00;;;4.82;;
47856;SDS011;33618;49.972;8.242;2023-02-20T11:49:07;7.85;;;4.35;;
47856;SDS011;33618;49.972;8.242;2023-02-20T11:59:41;7.05;;;4.30;;
47856;SDS011;33618;49.972;8.242;2023-02-20T12:02:28;7.70;;;4.50;;
47856;SDS011;33618;49.972;8.242;2023-02-20T12:10:08;4.95;;;3.95;;
47856;SDS011;33618;49.972;8.242;2023-02-20T12:13:06;5.28;;;3.90;;
47856;SDS011;33618;49.972;8.242;2023-02-20T12:15:41;6.85;;;4.15;;
47856;SDS011;33618;49.972;8.242;2023-02-20T12:20:59;9.80;;;3.75;;
47856;SDS011;33618;49.972;8.242;2023-02-20T12:23:44;5.47;;;3.67;;
47856;SDS011;33618;49.972;8.242;2023-02-20T12:26:50;6.63;;;3.78;;
47856;SDS011;33618;49.972;8.242;2023-02-20T12:35:26;3.80;;;3.30;;
47856;SDS011;33618;49.972;8.242;2023-02-20T12:46:00;5.10;;;3.40;;
47856;SDS011;33618;49.972;8.242;2023-02-20T13:02:03;3.67;;;3.15;;
47856;SDS011;33618;49.972;8.242;2023-02-20T13:05:05;6.50;;;3.10;;
47856;SDS011;33618;49.972;8.242;2023-02-20T13:07:38;5.55;;;2.92;;
47856;SDS011;33618;49.972;8.242;2023-02-20T13:10:24;4.80;;;3.05;;
47856;SDS011;33618;49.972;8.242;2023-02-20T13:12:53;4.53;;;2.88;;
47856;SDS011;33618;49.972;8.242;2023-02-20T13:21:04;5.03;;;2.97;;
47856;SDS011;33618;49.972;8.242;2023-02-20T13:23:35;7.53;;;3.03;;
47856;SDS011;33618;49.972;8.242;2023-02-20T13:28:52;3.78;;;2.58;;
47856;SDS011;33618;49.972;8.242;2023-02-20T13:31:24;4.72;;;2.80;;
47856;SDS011;33618;49.972;8.242;2023-02-20T13:36:43;2.97;;;2.50;;
47856;SDS011;33618;49.972;8.242;2023-02-20T13:57:44;4.13;;;2.35;;
47856;SDS011;33618;49.972;8.242;2023-02-20T14:02:41;3.78;;;2.30;;
47856;SDS011;33618;49.972;8.242;2023-02-20T14:05:17;5.88;;;2.33;;
47856;SDS011;33618;49.972;8.242;2023-02-20T14:07:46;4.68;;;2.30;;
47856;SDS011;33618;49.972;8.242;2023-02-20T14:12:45;4.43;;;2.40;;
47856;SDS011;33618;49.972;8.242;2023-02-20T14:15:30;5.07;;;2.28;;
47856;SDS011;33618;49.972;8.242;2023-02-20T14:17:58;5.65;;;2.50;;
47856;SDS011;33618;49.972;8.242;2023-02-20T14:20:36;4.32;;;2.47;;
47856;SDS011;33618;49.972;8.242;2023-02-20T14:25:34;6.15;;;2.53;;
47856;SDS011;33618;49.972;8.242;2023-02-20T14:28:10;6.43;;;2.80;;
47856;SDS011;33618;49.972;8.242;2023-02-20T14:30:39;7.05;;;2.85;;
47856;SDS011;33618;49.972;8.242;2023-02-20T14:33:08;4.38;;;2.40;;
47856;SDS011;33618;49.972;8.242;2023-02-20T14:38:44;7.15;;;2.75;;
47856;SDS011;33618;49.972;8.242;2023-02-20T14:41:37;4.75;;;2.15;;
47856;SDS011;33618;49.972;8.242;2023-02-20T14:44:05;6.78;;;2.58;;
47856;SDS011;33618;49.972;8.242;2023-02-20T14:46:43;2.88;;;2.33;;
47856;SDS011;33618;49.972;8.242;2023-02-20T14:49:15;4.45;;;2.10;;
47856;SDS011;33618;49.972;8.242;2023-02-20T14:51:50;5.43;;;2.42;;
47856;SDS011;33618;49.972;8.242;2023-02-20T14:54:20;3.00;;;2.30;;
47856;SDS011;33618;49.972;8.242;2023-02-20T14:56:50;4.47;;;2.30;;
47856;SDS011;33618;49.972;8.242;2023-02-20T14:59:23;5.60;;;2.22;;
47856;SDS011;33618;49.972;8.242;2023-02-20T15:01:59;4.63;;;2.60;;
47856;SDS011;33618;49.972;8.242;2023-02-20T15:04:51;7.28;;;2.35;;
47856;SDS011;33618;49.972;8.242;2023-02-20T15:09:49;5.60;;;2.20;;
47856;SDS011;33618;49.972;8.242;2023-02-20T15:12:56;3.75;;;2.10;;
47856;SDS011;33618;49.972;8.242;2023-02-20T15:15:21;5.43;;;1.98;;
47856;SDS011;33618;49.972;8.242;2023-02-20T15:17:48;3.45;;;2.00;;
47856;SDS011;33618;49.972;8.242;2023-02-20T15:20:51;6.45;;;2.42;;
47856;SDS011;33618;49.972;8.242;2023-02-20T15:25:55;10.52;;;2.13;;
47856;SDS011;33618;49.972;8.242;2023-02-20T15:28:27;4.95;;;2.35;;
47856;SDS011;33618;49.972;8.242;2023-02-20T15:33:36;4.82;;;1.95;;
47856;SDS011;33618;49.972;8.242;2023-02-20T15:36:16;3.65;;;2.25;;
47856;SDS011;33618;49.972;8.242;2023-02-20T15:38:46;4.32;;;2.40;;
47856;SDS011;33618;49.972;8.242;2023-02-20T15:41:13;2.42;;;2.00;;
47856;SDS011;33618;49.972;8.242;2023-02-20T15:43:40;5.20;;;2.10;;
47856;SDS011;33618;49.972;8.242;2023-02-20T15:46:17;2.80;;;2.00;;
47856;SDS011;33618;49.972;8.242;2023-02-20T15:48:46;3.70;;;1.90;;
47856;SDS011;33618;49.972;8.242;2023-02-20T15:51:20;4.38;;;1.92;;
47856;SDS011;33618;49.972;8.242;2023-02-20T15:53:49;4.50;;;1.98;;
47856;SDS011;33618;49.972;8.242;2023-02-20T15:56:17;5.47;;;2.40;;
47856;SDS011;33618;49.972;8.242;2023-02-20T15:58:45;4.45;;;2.25;;
47856;SDS011;33618;49.972;8.242;2023-02-20T16:01:13;3.45;;;1.92;;
47856;SDS011;33618;49.972;8.242;2023-02-20T16:03:42;5.82;;;2.13;;
47856;SDS011;33618;49.972;8.242;2023-02-20T16:06:19;4.43;;;2.15;;
47856;SDS011;33618;49.972;8.242;2023-02-20T16:08:47;4.20;;;1.90;;
47856;SDS011;33618;49.972;8.242;2023-02-20T16:11:16;5.03;;;2.00;;
47856;SDS011;33618;49.972;8.242;2023-02-20T16:13:45;6.78;;;2.17;;
47856;SDS011;33618;49.972;8.242;2023-02-20T16:16:18;4.22;;;2.13;;
47856;SDS011;33618;49.972;8.242;2023-02-20T16:21:21;5.22;;;2.30;;
47856;SDS011;33618;49.972;8.242;2023-02-20T16:23:49;3.60;;;1.75;;
47856;SDS011;33618;49.972;8.242;2023-02-20T16:26:17;3.72;;;2.08;;
47856;SDS011;33618;49.972;8.242;2023-02-20T16:28:49;3.10;;;1.98;;
47856;SDS011;33618;49.972;8.242;2023-02-20T16:31:20;4.18;;;1.75;;
47856;SDS011;33618;49.972;8.242;2023-02-20T16:33:47;2.70;;;1.77;;
47856;SDS011;33618;49.972;8.242;2023-02-20T16:36:15;2.17;;;1.85;;
47856;SDS011;33618;49.972;8.242;2023-02-20T16:38:50;4.18;;;2.03;;
47856;SDS011;33618;49.972;8.242;2023-02-20T16:41:17;3.75;;;1.90;;
47856;SDS011;33618;49.972;8.242;2023-02-20T16:43:44;3.38;;;1.80;;
47856;SDS011;33618;49.972;8.242;2023-02-20T16:46:11;4.10;;;2.22;;
47856;SDS011;33618;49.972;8.242;2023-02-20T16:48:38;8.73;;;2.15;;
47856;SDS011;33618;49.972;8.242;2023-02-20T16:51:08;4.20;;;1.95;;
47856;SDS011;33618;49.972;8.242;2023-02-20T16:53:36;4.45;;;1.90;;
47856;SDS011;33618;49.972;8.242;2023-02-20T16:56:03;5.60;;;2.10;;
47856;SDS011;33618;49.972;8.242;2023-02-20T16:58:31;4.15;;;2.10;;
47856;SDS011;33618;49.972;8.242;2023-02-20T17:00:57;5.35;;;2.13;;
47856;SDS011;33618;49.972;8.242;2023-02-20T17:03:25;4.85;;;2.53;;
47856;SDS011;33618;49.972;8.242;2023-02-20T17:05:53;7.47;;;2.53;;
47856;SDS011;33618;49.972;8.242;2023-02-20T17:08:25;5.13;;;3.55;;
47856;SDS011;33618;49.972;8.242;2023-02-20T17:10:52;5.07;;;3.08;;
47856;SDS011;33618;49.972;8.242;2023-02-20T17:13:19;4.53;;;2.38;;
47856;SDS011;33618;49.972;8.242;2023-02-20T17:15:46;5.78;;;3.33;;
47856;SDS011;33618;49.972;8.242;2023-02-20T17:18:13;4.68;;;3.13;;
47856;SDS011;33618;49.972;8.242;2023-02-20T17:20:41;4.65;;;3.15;;
47856;SDS011;33618;49.972;8.242;2023-02-20T17:23:08;5.53;;;2.63;;
47856;SDS011;33618;49.972;8.242;2023-02-20T17:25:35;6.70;;;2.67;;
47856;SDS011;33618;49.972;8.242;2023-02-20T17:28:02;4.55;;;2.20;;
47856;SDS011;33618;49.972;8.242;2023-02-20T17:30:30;9.27;;;2.35;;
47856;SDS011;33618;49.972;8.242;2023-02-20T17:32:57;5.40;;;2.42;;
47856;SDS011;33618;49.972;8.242;2023-02-20T17:35:25;4.78;;;3.08;;
47856;SDS011;33618;49.972;8.242;2023-02-20T17:37:52;5.03;;;2.50;;
47856;SDS011;33618;49.972;8.242;2023-02-20T17:40:19;5.22;;;2.67;;
47856;SDS011;33618;49.972;8.242;2023-02-20T17:42:46;4.22;;;2.30;;
47856;SDS011;33618;49.972;8.242;2023-02-20T17:45:13;7.57;;;2.90;;
47856;SDS011;33618;49.972;8.242;2023-02-20T17:47:41;5.38;;;2.70;;
47856;SDS011;33618;49.972;8.242;2023-02-20T17:50:08;5.13;;;2.70;;
47856;SDS011;33618;49.972;8.242;2023-02-20T17:52:35;5.75;;;3.05;;
47856;SDS011;33618;49.972;8.242;2023-02-20T17:55:02;7.20;;;2.92;;
47856;SDS011;33618;49.972;8.242;2023-02-20T17:57:30;8.15;;;3.03;;
47856;SDS011;33618;49.972;8.242;2023-02-20T17:59:58;7.00;;;3.08;;
47856;SDS011;33618;49.972;8.242;2023-02-20T18:02:26;7.72;;;2.97;;
47856;SDS011;33618;49.972;8.242;2023-02-20T18:04:52;6.45;;;3.28;;
47856;SDS011;33618;49.972;8.242;2023-02-20T18:07:19;5.55;;;3.17;;
47856;SDS011;33618;49.972;8.242;2023-02-20T18:09:47;5.72;;;3.38;;
47856;SDS011;33618;49.972;8.242;2023-02-20T18:12:14;7.85;;;3.72;;
47856;SDS011;33618;49.972;8.242;2023-02-20T18:14:41;5.40;;;3.67;;